createdAt,value
2023-04-18T00:15:09.440Z,8.198426395275922
2023-04-18T00:21:29.702Z,8.220687447742476
2023-04-18T00:27:50.568Z,8.196291675376253
2023-04-18T00:34:10.295Z,8.055696723453178
2023-04-18T00:45:21.926Z,8.154686193561874
2023-04-18T00:51:41.964Z,7.967467077759198
2023-04-18T01:00:36.638Z,7.974885033444817
2023-04-18T01:11:51.611Z,7.996820782817726
2023-04-18T01:20:09.519Z,7.9325786475752516
2023-04-18T01:26:28.940Z,7.938325015677258
2023-04-18T01:32:51.940Z,7.911282399665553
2023-04-18T01:39:10.585Z,7.836522131061873
2023-04-18T01:50:09.962Z,7.7753155048076925
2023-04-18T01:58:05.249Z,7.769134092809366
2023-04-18T02:04:24.268Z,7.709367814590302
2023-04-18T02:10:44.807Z,7.742616664924749
2023-04-18T02:32:17.853Z,7.656460989757524
2023-04-18T02:38:38.164Z,7.646021242683946
2023-04-18T02:48:11.312Z,7.643959683319398
2023-04-18T02:56:51.926Z,7.623368258779266
2023-04-18T03:04:58.934Z,7.548677884615385
2023-04-18T03:17:10.701Z,7.630831286580268
2023-04-18T03:23:29.915Z,7.515203020484951
2023-04-18T03:34:13.272Z,7.4209049696906355
2023-04-18T03:48:32.707Z,7.255219873536788
2023-04-18T03:55:02.954Z,7.237874294523411
2023-04-18T04:04:22.039Z,7.057562970317726
2023-04-18T04:18:42.951Z,7.171987353678929
2023-04-18T04:25:03.194Z,7.188154525501673
2023-04-18T04:31:24.309Z,7.154872360994984
2023-04-18T04:37:46.495Z,7.117798259824415
2023-04-18T04:44:09.740Z,7.0734303145903015
2023-04-18T04:50:36.706Z,7.255679086538461
2023-04-18T05:06:30.903Z,7.204533340301002
2023-04-18T05:15:58.563Z,7.349033235785952
2023-04-18T05:23:12.977Z,7.2164611204013385
2023-04-18T05:29:35.694Z,7.3622615750418055
2023-04-18T05:36:00.633Z,7.39565870610368
2023-04-18T05:42:23.325Z,7.5490240907190636
2023-04-18T05:48:45.035Z,7.548078882734114
2023-04-18T05:55:07.195Z,7.7127207880434785
2023-04-18T06:12:22.786Z,7.621402069397993
2023-04-18T06:18:48.050Z,8.087171430811036
2023-04-18T06:25:32.518Z,8.211633178302675
2023-04-18T06:31:58.842Z,8.254953360158863
2023-04-18T06:40:59.906Z,8.584977267976589
2023-04-18T06:47:23.475Z,8.860914637332776
2023-04-18T06:55:12.021Z,9.098849028010033
2023-04-18T07:05:41.083Z,9.442129363503346
2023-04-18T07:12:02.516Z,9.580106866638795
2023-04-18T07:19:01.977Z,9.905805811036789
2023-04-18T07:28:09.582Z,10.182435592600335
2023-04-18T07:37:36.155Z,10.440635451505017
2023-04-18T07:43:57.556Z,10.782274900710702
2023-04-18T07:50:18.845Z,10.935906798704014
2023-04-18T07:56:41.658Z,10.914617736204013
2023-04-18T08:03:04.017Z,11.18155962583612
2023-04-18T08:09:25.388Z,11.102784672867893
2023-04-18T08:15:47.129Z,11.345106735994985
2023-04-18T08:25:05.736Z,11.580740489130434
2023-04-18T08:33:14.261Z,12.08545673076923
2023-04-18T08:39:35.567Z,12.047626855142141
2023-04-18T08:45:56.999Z,12.653516931438121
2023-04-18T08:52:16.912Z,15.163138195025097
2023-04-18T08:58:37.169Z,13.485048468854503
2023-04-18T09:04:58.001Z,12.946366795568572
2023-04-18T09:11:18.529Z,12.824076348244146
2023-04-18T09:17:38.764Z,12.904673782399662
2023-04-18T09:23:59.275Z,13.338160404473244
2023-04-18T09:30:19.964Z,13.455384484740794
2023-04-18T09:36:40.115Z,13.717163330894646
2023-04-18T09:48:22.478Z,14.170196227006679
2023-04-18T09:54:43.358Z,12.914285247700658
2023-04-18T10:01:04.233Z,12.695032922240815
2023-04-18T10:13:43.695Z,13.679074780518398
2023-04-18T10:20:04.585Z,14.23947141513378
2023-04-18T10:26:24.181Z,14.448525031354514
2023-04-18T10:32:44.233Z,13.889186611622069
2023-04-18T10:42:39.642Z,14.075861595944822
2023-04-18T10:48:59.659Z,14.863393603678919
2023-04-18T10:55:19.018Z,14.762425533026745
2023-04-18T11:01:38.932Z,14.12459108486622
2023-04-18T11:07:59.163Z,14.32640964673912
2023-04-18T11:18:48.437Z,13.600607493729102
2023-04-18T11:28:50.221Z,13.944068770903014
2023-04-18T11:35:10.224Z,13.550508204431424
2023-04-18T11:41:30.099Z,13.48209395903009
2023-04-18T11:47:52.491Z,13.729393551421406
2023-04-18T11:54:13.687Z,13.46795699205684
2023-04-18T12:00:34.257Z,13.976563153219058
2023-04-18T12:06:54.612Z,13.553257603469891
2023-04-18T12:13:14.894Z,13.420688100961517
2023-04-18T12:19:35.111Z,13.775525841346148
2023-04-18T12:35:53.865Z,14.797533444816048
2023-04-18T12:42:13.928Z,14.261819998954843
2023-04-18T12:48:33.396Z,14.197414558946496
2023-04-18T12:54:54.758Z,13.59957867370402
2023-04-18T13:01:15.088Z,13.60161933005853
2023-04-18T13:07:35.407Z,13.877966267767565
2023-04-18T13:13:55.914Z,13.913485054347818
2023-04-18T13:20:15.673Z,13.9189022000418
2023-04-18T13:26:35.758Z,13.780589595526758
2023-04-18T13:34:54.056Z,14.468017741429756
2023-04-18T13:41:13.959Z,14.698300977215732
2023-04-18T13:47:33.702Z,14.65807052153011
2023-04-18T13:53:53.936Z,14.179377874163892
2023-04-18T14:00:13.907Z,14.337995140050165
2023-04-18T14:08:12.941Z,14.217362562709027
2023-04-18T14:14:33.993Z,14.23579379180602
2023-04-18T14:20:55.080Z,13.913617657817722
2023-04-18T14:27:15.896Z,13.924938597408026
2023-04-18T14:34:38.900Z,13.956057300376257
2023-04-18T14:44:47.665Z,14.066869382316066
2023-04-18T14:51:10.162Z,13.606027252299327
2023-04-18T14:57:34.008Z,13.538142114339454
2023-04-18T15:09:36.433Z,13.67950721153846
2023-04-18T15:15:58.034Z,13.695494748118728
2023-04-18T15:30:51.457Z,13.722297632734115
2023-04-18T15:37:15.053Z,13.795891252090303
2023-04-18T15:43:37.491Z,14.297791466346153
2023-04-18T15:49:59.855Z,14.092881218645484
2023-04-18T15:56:22.073Z,13.91759445547659
2023-04-18T16:02:45.282Z,13.498216058737459
2023-04-18T16:09:08.573Z,13.434467757107024
2023-04-18T16:15:31.973Z,13.51184220840301
2023-04-18T16:21:55.177Z,13.131591633570235
2023-04-18T16:29:22.430Z,12.9507884354097
2023-04-18T16:35:45.024Z,13.05366651860368
2023-04-18T16:42:07.485Z,13.077478966346154
2023-04-18T16:48:29.172Z,12.993625888377927
2023-04-18T16:54:52.576Z,12.81499660326087
2023-04-18T17:01:14.640Z,12.894692595108694
2023-04-18T17:07:36.779Z,12.89311245819398
2023-04-18T17:14:15.193Z,12.911351640886288
2023-04-18T17:24:44.706Z,12.743342391304347
2023-04-18T17:33:35.822Z,12.659751254180602
2023-04-18T17:39:58.658Z,12.470794575668897
2023-04-18T17:46:21.458Z,12.33138456312709
2023-04-18T17:52:47.117Z,12.211810200668896
2023-04-18T18:00:48.013Z,12.174204379180603
2023-04-18T18:07:53.659Z,12.127821253135453
2023-04-18T18:15:08.995Z,12.097764031145484
2023-04-18T18:30:29.826Z,11.919784045777591
2023-04-18T18:36:56.754Z,11.94757329117893
2023-04-18T18:47:57.438Z,11.978300715928095
2023-04-18T18:54:19.627Z,11.898224550585283
2023-04-18T19:00:44.556Z,11.901884536998326
2023-04-18T19:07:09.557Z,11.871229619565216
2023-04-18T19:24:40.589Z,11.569876149665554
2023-04-18T19:37:02.538Z,11.398237614966554
2023-04-18T19:43:52.227Z,11.243214360367894
2023-04-18T19:50:19.171Z,11.15978195547659
2023-04-18T19:56:53.696Z,11.013416466346154
2023-04-18T20:05:14.272Z,10.847378631897993
2023-04-18T20:11:39.512Z,10.736248432274246
2023-04-18T20:18:05.307Z,10.673598845108694
2023-04-18T20:24:36.581Z,10.569926447533444
2023-04-18T20:30:58.106Z,10.487687473871238
2023-04-18T20:37:22.547Z,10.41342691785117
2023-04-18T20:47:39.906Z,10.297278689381269
2023-04-18T20:57:42.037Z,10.119852633779264
2023-04-18T21:04:03.769Z,9.992766905309367
2023-04-18T21:14:05.343Z,9.900726379598662
2023-04-18T21:23:29.129Z,9.767715301003344
2023-04-18T21:29:49.663Z,9.66190099811873
2023-04-18T21:37:35.592Z,9.632530962583612
2023-04-18T21:48:04.747Z,9.57082266408863
2023-04-18T21:54:24.830Z,9.63347421091137
2023-04-18T22:00:45.008Z,9.681871864548494
2023-04-18T22:07:05.515Z,9.644182431020068
2023-04-18T22:16:07.844Z,9.54727085075251
2023-04-18T22:22:28.410Z,9.506240854933111
2023-04-18T22:34:18.237Z,9.345558763586956
2023-04-18T22:40:37.978Z,9.207527043269232
2023-04-18T22:46:57.704Z,9.172419131479932
2023-04-18T22:57:29.399Z,8.985312369356187
2023-04-18T23:03:49.470Z,8.886213158444814
2023-04-18T23:11:00.665Z,8.798572063127091
2023-04-18T23:17:21.045Z,8.67554021216555
2023-04-18T23:23:41.327Z,8.606311402591974
2023-04-18T23:30:02.699Z,8.526692490593646
2023-04-18T23:36:40.985Z,8.47573487144649
2023-04-18T23:43:00.318Z,8.435637019230768
2023-04-18T23:54:54.892Z,8.325316158026755
